Chad Pregracke — WDI9674 — position and weather

sailwx.info

Track history (hours):
 
Tides and Currents Weather Stations Pressure Air Temp Water Temp Dewpoint Dewpoint Depression Visibility Wind Speed Wind Dir Waves Ship Positions

Chad Pregracke

Owner: Marquette Transportation Company, LLC, Paducah, KY. More information available from US FCC via Universal Licensing System and Coast Guard Vessel Documentation Center.

Last reported at 2018-Jan-05 09:44 UTC. Time now 2018-Jan-18 19:48 UTC.
Position N 32°45' W 091°09'.
Warning: this ship's position is 13 days out of date.

Length 55 m; draft 3.5 m.

Type: Ship (hazmat cat B). MMSI: 367751050.

Date/timePositionNaut miles runAvg speedWind from/ knotsBaromVisibWave heightAir tempDewpointWater temp
2018-Jan-05 09:44N 32°45' W 091°09'4 4.5
2018-Jan-05 08:46N 32°44' W 091°04'5 3.7
2018-Jan-05 07:24N 32°40' W 091°08'2 4.9
2018-Jan-05 06:56N 32°38' W 091°09'2 4.6
2018-Jan-05 06:30N 32°36' W 091°09'3 5.2
2018-Jan-05 06:00N 32°34' W 091°06'3 5.1
2018-Jan-05 05:30N 32°32' W 091°06'1 2.8
2018-Jan-05 04:59N 32°30' W 091°07'2 5.1
2018-Jan-05 04:30N 32°28' W 091°06'3 5.5
2018-Jan-05 04:00N 32°26' W 091°03'3 5.3
2018-Jan-05 03:30N 32°25' W 091°00'2 4.5
2018-Jan-05 03:00N 32°23' W 090°60'1 2.6
2018-Jan-05 02:30N 32°22' W 091°00'3 5.3
2018-Jan-05 02:00N 32°21' W 090°57'3 5.3
2018-Jan-05 01:30N 32°20' W 090°54'2 4.6
2018-Jan-05 01:00N 32°18' W 090°55'0 0.2
2018-Jan-05 00:30N 32°18' W 090°55'0 0.0
2018-Jan-05 00:00N 32°18' W 090°55'0 0.1
2018-Jan-04 23:30N 32°18' W 090°55'0 0.1
2018-Jan-04 23:00N 32°18' W 090°55'2 4.4
2018-Jan-04 22:30N 32°17' W 090°57'2 4.9
2018-Jan-04 22:00N 32°15' W 090°59'3 5.3
2018-Jan-04 21:30N 32°12' W 090°59'3 5.5
2018-Jan-04 21:00N 32°09' W 091°00'2 4.8
2018-Jan-04 20:30N 32°07' W 091°02'3 5.2
2018-Jan-04 19:58N 32°08' W 091°05'2 4.1
2018-Jan-04 19:30N 32°07' W 091°06'4 5.1
2018-Jan-04 18:38N 32°03' W 091°03'1 4.7
2018-Jan-04 18:30N 32°03' W 091°04'  
2017-Dec-29 18:06N 32°06' W 091°06'1 8.5
2017-Dec-29 18:00N 32°07' W 091°07'3 4.3
2017-Dec-29 17:15N 32°07' W 091°03'2 8.8
2017-Dec-29 17:00N 32°08' W 091°00'510.3
2017-Dec-29 16:30N 32°13' W 090°59'5 9.5
2017-Dec-29 16:00N 32°17' W 090°56'3 6.3
2017-Dec-29 15:30N 32°19' W 090°54'1 3.0
2017-Dec-29 15:00N 32°21' W 090°55'4 7.8
2017-Dec-29 14:30N 32°21' W 090°60'1 2.4
2017-Dec-29 14:00N 32°22' W 091°00'3 6.5
2017-Dec-29 13:30N 32°25' W 091°01'5 9.7
2017-Dec-29 13:00N 32°28' W 091°06'5 9.2
2017-Dec-29 12:30N 32°32' W 091°06'5 9.5
2017-Dec-29 12:00N 32°36' W 091°09'9 5.7
2017-Dec-29 10:30N 32°44' W 091°04'4 5.7
2017-Dec-29 09:45N 32°45' W 091°09'2 7.8
2017-Dec-29 09:30N 32°46' W 091°09'  
Track history (hours):
 
Tides and Currents Weather Stations Pressure Air Temp Water Temp Dewpoint Dewpoint Depression Visibility Wind Speed Wind Dir Waves Ship Positions

Chad Pregracke

Owner: Marquette Transportation Company, LLC, Paducah, KY. More information available from US FCC via Universal Licensing System and Coast Guard Vessel Documentation Center.

Last reported at 2018-Jan-05 09:44 UTC. Time now 2018-Jan-18 19:48 UTC.
Position N 32°45' W 091°09'.
Warning: this ship's position is 13 days out of date.

Length 55 m; draft 3.5 m.

Type: Ship (hazmat cat B). MMSI: 367751050.

Date/timePositionNaut miles runAvg speedWind from/ knotsBaromVisibWave heightAir tempDewpointWater temp
2018-Jan-05 09:44N 32°45' W 091°09'4 4.5
2018-Jan-05 08:46N 32°44' W 091°04'5 3.7
2018-Jan-05 07:24N 32°40' W 091°08'2 4.9
2018-Jan-05 06:56N 32°38' W 091°09'2 4.6
2018-Jan-05 06:30N 32°36' W 091°09'3 5.2
2018-Jan-05 06:00N 32°34' W 091°06'3 5.1
2018-Jan-05 05:30N 32°32' W 091°06'1 2.8
2018-Jan-05 04:59N 32°30' W 091°07'2 5.1
2018-Jan-05 04:30N 32°28' W 091°06'3 5.5
2018-Jan-05 04:00N 32°26' W 091°03'3 5.3
2018-Jan-05 03:30N 32°25' W 091°00'2 4.5
2018-Jan-05 03:00N 32°23' W 090°60'1 2.6
2018-Jan-05 02:30N 32°22' W 091°00'3 5.3
2018-Jan-05 02:00N 32°21' W 090°57'3 5.3
2018-Jan-05 01:30N 32°20' W 090°54'2 4.6
2018-Jan-05 01:00N 32°18' W 090°55'0 0.2
2018-Jan-05 00:30N 32°18' W 090°55'0 0.0
2018-Jan-05 00:00N 32°18' W 090°55'0 0.1
2018-Jan-04 23:30N 32°18' W 090°55'0 0.1
2018-Jan-04 23:00N 32°18' W 090°55'2 4.4
2018-Jan-04 22:30N 32°17' W 090°57'2 4.9
2018-Jan-04 22:00N 32°15' W 090°59'3 5.3
2018-Jan-04 21:30N 32°12' W 090°59'3 5.5
2018-Jan-04 21:00N 32°09' W 091°00'2 4.8
2018-Jan-04 20:30N 32°07' W 091°02'3 5.2
2018-Jan-04 19:58N 32°08' W 091°05'2 4.1
2018-Jan-04 19:30N 32°07' W 091°06'4 5.1
2018-Jan-04 18:38N 32°03' W 091°03'1 4.7
2018-Jan-04 18:30N 32°03' W 091°04'  
2017-Dec-29 18:06N 32°06' W 091°06'1 8.5
2017-Dec-29 18:00N 32°07' W 091°07'3 4.3
2017-Dec-29 17:15N 32°07' W 091°03'2 8.8
2017-Dec-29 17:00N 32°08' W 091°00'510.3
2017-Dec-29 16:30N 32°13' W 090°59'5 9.5
2017-Dec-29 16:00N 32°17' W 090°56'3 6.3
2017-Dec-29 15:30N 32°19' W 090°54'1 3.0
2017-Dec-29 15:00N 32°21' W 090°55'4 7.8
2017-Dec-29 14:30N 32°21' W 090°60'1 2.4
2017-Dec-29 14:00N 32°22' W 091°00'3 6.5
2017-Dec-29 13:30N 32°25' W 091°01'5 9.7
2017-Dec-29 13:00N 32°28' W 091°06'5 9.2
2017-Dec-29 12:30N 32°32' W 091°06'5 9.5
2017-Dec-29 12:00N 32°36' W 091°09'9 5.7
2017-Dec-29 10:30N 32°44' W 091°04'4 5.7
2017-Dec-29 09:45N 32°45' W 091°09'2 7.8
2017-Dec-29 09:30N 32°46' W 091°09'  

Dump ship's entire track history